Corral City, Texas
Current Conditions -  °F | °C
As of 5:33 AM on Saturday 22 Nov 2014 (Local Time) from KDTO Reporting Station
Light Rain Light Rain  
Wind Chill: 59°   Ceiling: 500
Heat Index: 59°   Visibility: 2.5mi
Dew Point: 59°   Wind: 16mph
Humidity: 100%   Direction: 140°SE
Pressure: 30.03"   Gusts: 23mph
Location:  33.108°N, 97.1641°W
Report Text: KDTO 221133Z AUTO 14014G20KT 2 1/2SM -RA BR OVC005 15/15 A3003 RMK AO2 RAB1055 P0001 T01500150
Loading
Personal Weather Stations






























Interactive Weather Map New forecast layout! Learn more

10-Day Weather Forecast

Advertisements
Track Severe Weather on mobile